Share

Champion, NE

Imperial Municipal (KIML) Elev 3274 ft | 40.51 °N, 101.62 °W | Change Station

Current weather conditions updated 7 minutes ago

Haze
Haze
33 °F
Feels Like 24 °F
N
12
Wind Variable Wind from NE
Sunrise 6:05 AM
Sunset 7:28 PM
Moon Waning Gibbous

Today is forecast to be Much Cooler than yesterday.

Pressure 30.17 in
Visibility 6.0 miles
Clouds Scattered Clouds 1100 ft
Windchill 24 °F
Dew Point 28 °F
Humidity 82%
Rainfall 0.00 in
Snow Depth Not available.
UV 0 out of 16
Pollen 10.90 out of 12
Air Quality Not available.
Flu Activity Sporadic
SPECI KIML 170612Z AUTO 04010KT 6SM HZ SCT011 01/M02 A3017 RMK AO2 T00061022 $

More Conditions Fewer Conditions

Pressure 30.17 in
Visibility 6.0 miles
Clouds Scattered Clouds 1100 ft
Windchill 24 °F
Dew Point 28 °F
Humidity 82%
Rainfall 0.00 in
Snow Depth Not available.
UV 0 out of 16
Pollen 10.90 out of 12
Air Quality Not available.
Flu Activity Sporadic
SPECI KIML 170612Z AUTO 04010KT 6SM HZ SCT011 01/M02 A3017 RMK AO2 T00061022 $

More Conditions Fewer Conditions

10-Day Forecast

Almanac

Astronomy

Apr. 17, 2014 Rise Set
Actual Time 6:05 AM MDT 7:28 PM MDT
Civil Twilight 5:37 AM MDT 7:56 PM MDT
Nautical Twilight 5:03 AM MDT 8:30 PM MDT
Astronomical Twilight 4:27 AM MDT 9:06 PM MDT
Moon 10:16 PM MDT 7:38 AM MDT
Length of Visible Light 14h 19m
Length of Day
13h 22m
Tomorrow will be 2m 31s longer.
Waning Gibbous, 96% of the Moon is Illuminated
Today
Waning Gibbous
Apr 22
Last Quarter
Apr 29
New
May 6
First Quarter
May 14
Full

Today's Extremes

State Highs State Lows

Community

  • Sunset over the Bay
    Sunset over the Bay
  • symphony in blue....
    symphony in blue....
  • Dawn Surprise
    Dawn Surprise
  • Yucca delight
    Yucca delight
  • Sunset inside of the Ocean
    Sunset inside of the Ocean

WunderPhotos

Upload Photos

1,701,872 photos uploaded!

WunderBlogs® & News

Nearby

Snow Depth

Station Depth Elevation
No new snow has been reported.

Coastal Water Temperatures

Place Temperature
No Stations Reporting

Earthquake Activity

City Distance Mag. Time & Date
No recent earthquake activity has been reported nearby.
Minimum magnitude displayed is 2.5.

Nearby Weather Stations

There are no personal weather stations in this area.

What do you think?

We're not finished. Please let us know what you like, what you don't like, and what you are still missing.